createdAt,value
2023-02-21T03:06:48.874Z,2.85
2023-02-21T03:09:41.675Z,3.20
2023-02-21T03:12:27.672Z,3.47
2023-02-21T03:15:02.628Z,3.45
2023-02-21T03:17:32.708Z,3.35
2023-02-21T03:20:03.510Z,3.60
2023-02-21T03:22:31.735Z,3.10
2023-02-21T03:25:01.460Z,3.22
2023-02-21T03:27:30.740Z,3.40
2023-02-21T03:30:03.346Z,3.78
2023-02-21T03:32:52.632Z,3.67
2023-02-21T03:35:20.694Z,3.40
2023-02-21T03:37:52.552Z,3.88
2023-02-21T03:40:29.275Z,3.50
2023-02-21T03:42:58.459Z,3.47
2023-02-21T03:45:25.809Z,3.35
2023-02-21T03:47:53.148Z,3.72
2023-02-21T03:50:20.344Z,4.15
2023-02-21T03:52:47.558Z,3.70
2023-02-21T03:55:14.870Z,3.97
2023-02-21T03:57:42.203Z,4.38
2023-02-21T04:00:09.531Z,3.28
2023-02-21T04:02:36.651Z,3.50
2023-02-21T04:05:04.683Z,4.05
2023-02-21T04:07:32.130Z,3.85
2023-02-21T04:09:58.835Z,3.72
2023-02-21T04:12:26.360Z,4.03
2023-02-21T04:14:56.881Z,4.10
2023-02-21T04:17:24.178Z,4.20
2023-02-21T04:19:51.981Z,3.67
2023-02-21T04:22:19.284Z,3.70
2023-02-21T04:24:48.508Z,4.18
2023-02-21T04:27:16.694Z,4.72
2023-02-21T04:29:43.933Z,4.03
2023-02-21T04:32:12.365Z,3.63
2023-02-21T04:34:39.767Z,4.38
2023-02-21T04:37:07.068Z,4.97
2023-02-21T04:39:34.311Z,4.63
2023-02-21T04:42:01.434Z,4.43
2023-02-21T04:44:28.911Z,4.70
2023-02-21T04:46:56.237Z,4.28
2023-02-21T04:49:26.555Z,4.95
2023-02-21T04:51:54.510Z,4.28
2023-02-21T04:54:21.675Z,4.43
2023-02-21T04:56:48.836Z,4.50
2023-02-21T04:59:16.321Z,4.28
2023-02-21T05:01:42.955Z,3.78
2023-02-21T05:04:10.209Z,4.30
2023-02-21T05:06:37.429Z,3.97
2023-02-21T05:09:05.116Z,3.65
2023-02-21T05:11:37.439Z,4.07
2023-02-21T05:14:04.887Z,4.35
2023-02-21T05:16:32.416Z,3.83
2023-02-21T05:18:58.996Z,4.03
2023-02-21T05:21:26.220Z,3.53
2023-02-21T05:23:56.384Z,3.72
2023-02-21T05:26:31.796Z,3.40
2023-02-21T05:28:59.282Z,4.18
2023-02-21T05:31:27.494Z,3.60
2023-02-21T05:33:55.140Z,3.22
2023-02-21T05:36:24.892Z,2.63
2023-02-21T05:38:54.309Z,2.90
2023-02-21T05:41:22.766Z,2.97
2023-02-21T05:43:50.296Z,2.90
2023-02-21T05:46:29.951Z,2.63
2023-02-21T05:48:59.476Z,2.78
2023-02-21T05:51:27.907Z,2.90
2023-02-21T05:53:55.619Z,2.80
2023-02-21T05:56:23.408Z,2.97
2023-02-21T05:58:50.890Z,2.80
2023-02-21T06:01:18.334Z,2.45
2023-02-21T06:03:45.794Z,2.40
2023-02-21T06:06:16.688Z,2.58
2023-02-21T06:08:48.411Z,2.83
2023-02-21T06:11:22.491Z,2.22
2023-02-21T06:13:53.615Z,2.03
2023-02-21T06:16:21.767Z,2.50
2023-02-21T06:18:57.477Z,2.55
2023-02-21T06:21:24.730Z,2.72
2023-02-21T06:23:52.314Z,2.78
2023-02-21T06:26:20.945Z,2.95
2023-02-21T06:28:48.926Z,3.13
2023-02-21T06:31:17.944Z,2.92
2023-02-21T06:33:45.608Z,3.38
2023-02-21T06:36:16.740Z,3.08
2023-02-21T06:38:49.189Z,3.22
2023-02-21T06:41:18.545Z,3.30
2023-02-21T06:43:45.799Z,2.70
2023-02-21T06:46:20.867Z,3.40
2023-02-21T06:48:48.421Z,3.15
2023-02-21T06:51:16.021Z,3.20
2023-02-21T06:53:45.003Z,4.20
2023-02-21T06:56:12.225Z,4.53
2023-02-21T06:58:39.616Z,3.28
2023-02-21T07:01:06.751Z,2.92
2023-02-21T07:03:34.352Z,2.50
2023-02-21T07:06:01.740Z,2.97
2023-02-21T07:08:28.905Z,2.70
2023-02-21T07:10:56.102Z,2.38
2023-02-21T07:13:23.544Z,3.40
2023-02-21T07:15:51.178Z,2.53
2023-02-21T07:18:18.484Z,2.00
2023-02-21T07:20:45.172Z,1.80
2023-02-21T07:23:12.462Z,2.00
2023-02-21T07:25:39.722Z,2.30
2023-02-21T07:28:07.058Z,2.78
2023-02-21T07:30:34.856Z,2.35
2023-02-21T07:33:02.295Z,2.80
2023-02-21T07:35:29.598Z,2.72
2023-02-21T07:37:56.795Z,2.95
2023-02-21T07:40:24.379Z,3.45
2023-02-21T07:42:51.694Z,1.90
2023-02-21T07:45:19.411Z,2.10
2023-02-21T07:47:48.204Z,3.85
2023-02-21T07:50:16.809Z,2.80
2023-02-21T07:52:44.201Z,2.22
2023-02-21T07:55:13.545Z,2.00
2023-02-21T07:57:40.920Z,2.70
2023-02-21T08:00:08.968Z,2.10
2023-02-21T08:02:36.073Z,2.50
2023-02-21T08:05:04.917Z,2.53
2023-02-21T08:07:32.617Z,2.83
2023-02-21T08:10:00.141Z,3.22
2023-02-21T08:12:27.304Z,1.95
2023-02-21T08:14:54.780Z,2.00
2023-02-21T08:17:22.118Z,1.95
2023-02-21T08:19:49.376Z,1.95
2023-02-21T08:22:16.713Z,2.28
2023-02-21T08:24:44.220Z,2.20
2023-02-21T08:27:11.548Z,1.80
2023-02-21T08:29:41.155Z,2.50
2023-02-21T08:32:09.470Z,2.15
2023-02-21T08:34:36.757Z,1.90
2023-02-21T08:37:07.176Z,1.90
2023-02-21T08:39:34.736Z,2.95
2023-02-21T08:42:02.075Z,2.30
2023-02-21T08:44:29.575Z,1.80
2023-02-21T08:46:56.944Z,2.17
2023-02-21T08:49:24.159Z,2.55
2023-02-21T08:51:51.141Z,2.08
2023-02-21T08:54:19.672Z,2.00
2023-02-21T08:56:47.031Z,2.28
2023-02-21T08:59:14.389Z,1.67
2023-02-21T09:01:42.183Z,1.55
2023-02-21T09:04:09.402Z,1.52
2023-02-21T09:06:36.671Z,1.23
2023-02-21T09:09:04.146Z,1.20
2023-02-21T09:11:31.510Z,1.50
2023-02-21T09:14:00.156Z,1.50
2023-02-21T09:16:27.393Z,1.70
2023-02-21T09:18:59.629Z,1.88
2023-02-21T09:21:28.125Z,2.15
2023-02-21T09:23:57.420Z,1.17
2023-02-21T09:26:24.743Z,1.75
2023-02-21T09:28:53.098Z,1.40
2023-02-21T09:31:21.098Z,2.25
2023-02-21T09:33:48.637Z,2.30
2023-02-21T09:36:16.070Z,1.42
2023-02-21T09:38:43.469Z,1.40
2023-02-21T09:41:14.823Z,1.15
2023-02-21T09:43:46.700Z,1.95
2023-02-21T09:46:21.605Z,1.02
2023-02-21T09:48:50.361Z,2.00
2023-02-21T09:51:19.455Z,1.20
2023-02-21T09:53:49.893Z,1.15
2023-02-21T09:56:28.399Z,0.88
2023-02-21T09:58:57.233Z,1.00
2023-02-21T10:01:55.486Z,1.10
2023-02-21T10:04:41.923Z,1.40
2023-02-21T10:07:17.275Z,1.27
2023-02-21T10:09:57.583Z,2.67
2023-02-21T10:12:42.196Z,1.35
2023-02-21T10:15:37.241Z,1.48
2023-02-21T10:18:04.573Z,2.05
2023-02-21T10:20:50.059Z,1.30
2023-02-21T10:23:31.602Z,1.33
2023-02-21T10:26:04.506Z,1.35
2023-02-21T10:28:31.526Z,1.55
2023-02-21T10:31:03.089Z,1.70
2023-02-21T10:33:33.171Z,1.42
2023-02-21T10:36:00.642Z,1.75
2023-02-21T10:38:28.123Z,1.25
2023-02-21T10:41:02.018Z,1.13
2023-02-21T10:43:38.368Z,1.25
2023-02-21T10:46:15.914Z,1.48
2023-02-21T10:48:44.613Z,1.30
2023-02-21T10:51:12.066Z,2.03
2023-02-21T10:53:45.419Z,1.40
2023-02-21T10:56:15.944Z,1.08
2023-02-21T10:58:55.548Z,1.45
2023-02-21T11:01:30.766Z,0.93
2023-02-21T11:04:24.391Z,1.15
2023-02-21T11:07:12.108Z,1.40
2023-02-21T11:09:44.267Z,1.20
2023-02-21T11:12:20.312Z,1.05
2023-02-21T11:14:53.825Z,1.00
2023-02-21T11:17:22.794Z,1.40
2023-02-21T11:19:54.581Z,2.05
2023-02-21T11:22:35.091Z,1.13
2023-02-21T11:25:24.170Z,1.48
2023-02-21T11:28:15.302Z,1.52
2023-02-21T11:31:02.716Z,1.20
2023-02-21T11:33:31.084Z,1.75
2023-02-21T11:36:12.759Z,1.88
2023-02-21T11:39:05.131Z,1.60
2023-02-21T11:41:53.166Z,2.05
2023-02-21T11:44:27.816Z,1.15
2023-02-21T11:47:17.122Z,1.33
2023-02-21T11:50:15.400Z,1.90
2023-02-21T11:52:57.067Z,1.42
2023-02-21T11:55:26.646Z,2.03
2023-02-21T11:58:12.056Z,1.42
2023-02-21T12:01:08.425Z,1.75
2023-02-21T12:03:56.932Z,1.50
2023-02-21T12:06:35.630Z,1.00
2023-02-21T12:09:29.194Z,1.10
2023-02-21T12:12:05.917Z,1.58
2023-02-21T12:15:03.529Z,1.00
2023-02-21T12:18:05.961Z,1.40
2023-02-21T12:21:13.580Z,1.27
2023-02-21T12:24:12.023Z,1.60
2023-02-21T12:26:58.074Z,1.25
2023-02-21T12:30:04.074Z,1.50
2023-02-21T12:32:54.656Z,1.33
2023-02-21T12:36:13.230Z,1.27
2023-02-21T12:38:43.337Z,1.23
2023-02-21T12:41:35.963Z,1.23
2023-02-21T12:44:20.543Z,1.30
2023-02-21T12:46:59.679Z,1.60
2023-02-21T12:49:45.315Z,1.75
2023-02-21T12:52:22.270Z,1.33
2023-02-21T12:55:07.875Z,1.42
2023-02-21T12:57:46.573Z,1.98
2023-02-21T13:00:27.436Z,1.58
2023-02-21T13:03:27.148Z,1.42
2023-02-21T13:06:17.769Z,1.50
2023-02-21T13:08:59.921Z,1.20
2023-02-21T13:11:43.464Z,1.42
2023-02-21T13:14:28.392Z,1.67
2023-02-21T13:16:55.841Z,3.25
2023-02-21T13:19:24.760Z,1.40
2023-02-21T13:21:54.696Z,2.67
2023-02-21T13:24:34.084Z,1.23
2023-02-21T13:27:16.962Z,1.50
2023-02-21T13:29:44.955Z,1.45
2023-02-21T13:32:20.578Z,1.75
2023-02-21T13:34:55.588Z,1.75
2023-02-21T13:37:30.265Z,1.88
2023-02-21T13:40:20.706Z,2.20
2023-02-21T13:42:48.199Z,1.83
2023-02-21T13:45:27.219Z,1.50
2023-02-21T13:47:54.457Z,2.55
2023-02-21T13:50:54.987Z,1.55
2023-02-21T13:53:23.985Z,1.60
2023-02-21T13:56:15.886Z,1.63
2023-02-21T13:58:48.249Z,2.05
2023-02-21T14:01:30.575Z,1.60
2023-02-21T14:03:58.294Z,2.53
2023-02-21T14:06:36.221Z,2.83
2023-02-21T14:09:19.429Z,1.95
2023-02-21T14:11:52.770Z,1.60
2023-02-21T14:14:32.806Z,1.95
2023-02-21T14:17:02.937Z,1.75
2023-02-21T14:19:36.354Z,1.55
2023-02-21T14:22:05.847Z,1.85
2023-02-21T14:24:37.172Z,2.13
2023-02-21T14:29:42.601Z,1.70
2023-02-21T14:32:09.884Z,2.28
2023-02-21T14:34:48.790Z,2.42
2023-02-21T14:37:38.434Z,2.08
2023-02-21T14:40:11.395Z,1.83
2023-02-21T14:42:50.836Z,1.85
2023-02-21T14:45:36.731Z,1.77
2023-02-21T14:48:44.493Z,1.92
2023-02-21T14:51:42.321Z,1.75
2023-02-21T14:54:31.105Z,2.17
2023-02-21T14:57:35.317Z,1.65
2023-02-21T15:00:02.627Z,1.80
2023-02-21T15:02:51.212Z,2.88
2023-02-21T15:05:47.432Z,1.95
2023-02-21T15:08:22.970Z,2.95
2023-02-21T15:10:56.582Z,1.90
2023-02-21T15:13:33.280Z,2.13
2023-02-21T15:16:09.903Z,2.10
2023-02-21T15:18:38.450Z,2.45
2023-02-21T15:21:11.835Z,2.42
2023-02-21T15:23:42.655Z,2.03
2023-02-21T15:26:28.292Z,1.50
2023-02-21T15:29:16.961Z,2.20
2023-02-21T15:31:44.400Z,2.20
2023-02-21T15:34:35.603Z,1.95
2023-02-21T15:37:18.674Z,2.97
2023-02-21T15:39:56.678Z,2.10
2023-02-21T15:42:26.211Z,2.08
2023-02-21T15:44:59.152Z,2.22
2023-02-21T15:47:30.942Z,2.28
2023-02-21T15:50:13.413Z,3.03
2023-02-21T15:52:53.965Z,2.13
2023-02-21T15:55:21.371Z,2.30
2023-02-21T15:58:04.229Z,2.60
2023-02-21T16:00:37.052Z,3.05
2023-02-21T16:03:47.476Z,1.70
2023-02-21T16:06:23.656Z,1.92
2023-02-21T16:08:59.509Z,3.00
2023-02-21T16:11:39.298Z,3.78
2023-02-21T16:14:24.459Z,1.90
2023-02-21T16:17:07.846Z,1.95
2023-02-21T16:19:37.481Z,2.42
2023-02-21T16:22:28.956Z,2.20
2023-02-21T16:25:28.376Z,2.30
2023-02-21T16:28:00.542Z,3.58
2023-02-21T16:30:32.274Z,14.50
2023-02-21T16:33:02.532Z,16.08
2023-02-21T16:35:30.208Z,13.65
2023-02-21T16:37:59.654Z,4.90
2023-02-21T16:40:32.415Z,4.82
2023-02-21T16:43:02.316Z,4.10
2023-02-21T16:45:31.398Z,3.17
2023-02-21T16:48:01.887Z,2.65
2023-02-21T16:50:37.460Z,2.70
2023-02-21T16:53:04.847Z,3.13
2023-02-21T16:55:32.302Z,2.65
2023-02-21T16:58:02.942Z,2.85
2023-02-21T17:00:32.732Z,2.72
2023-02-21T17:03:00.832Z,5.90
2023-02-21T17:05:28.502Z,4.43
2023-02-21T17:07:56.431Z,3.63
2023-02-21T17:10:24.049Z,3.35
2023-02-21T17:12:51.486Z,2.25
2023-02-21T17:15:18.865Z,2.13
2023-02-21T17:17:52.640Z,2.13
2023-02-21T17:20:22.262Z,3.58
2023-02-21T17:22:53.214Z,2.63
2023-02-21T17:25:22.755Z,3.47
2023-02-21T17:27:50.884Z,3.95
2023-02-21T17:30:20.506Z,2.78
2023-02-21T17:32:48.089Z,2.10
2023-02-21T17:35:17.910Z,3.03
2023-02-21T17:37:47.967Z,3.13
2023-02-21T17:40:16.213Z,3.17
2023-02-21T17:42:43.464Z,2.97
2023-02-21T17:45:11.494Z,3.47
2023-02-21T17:47:39.500Z,4.50
2023-02-21T17:50:07.590Z,3.38
2023-02-21T17:52:35.375Z,3.22
2023-02-21T17:55:08.251Z,3.38
2023-02-21T17:57:38.440Z,2.75
2023-02-21T18:00:14.178Z,2.78
2023-02-21T18:02:41.612Z,3.95
2023-02-21T18:05:09.396Z,1.90
2023-02-21T18:07:36.750Z,2.63
2023-02-21T18:10:05.797Z,2.20
2023-02-21T18:12:36.338Z,3.00
2023-02-21T18:15:04.144Z,2.13
2023-02-21T18:17:31.637Z,5.03
2023-02-21T18:19:59.005Z,3.13
2023-02-21T18:22:26.138Z,2.97
2023-02-21T18:24:53.239Z,3.47
2023-02-21T18:27:20.790Z,4.70
2023-02-21T18:29:48.379Z,3.17
2023-02-21T18:32:15.662Z,3.47
2023-02-21T18:34:43.591Z,4.00
2023-02-21T18:37:11.084Z,3.30
2023-02-21T18:39:38.500Z,3.10
2023-02-21T18:42:05.918Z,3.72
2023-02-21T18:44:34.382Z,4.00
2023-02-21T18:47:02.621Z,4.13
2023-02-21T18:49:34.440Z,3.17
2023-02-21T18:52:04.371Z,3.47
2023-02-21T18:54:31.654Z,4.38
2023-02-21T18:57:00.008Z,3.20
2023-02-21T18:59:27.527Z,4.25
2023-02-21T19:01:56.219Z,3.35
2023-02-21T19:04:23.981Z,3.72
2023-02-21T19:06:51.612Z,2.45
2023-02-21T19:09:19.205Z,3.55
2023-02-21T19:11:46.722Z,3.97
2023-02-21T19:14:15.163Z,3.00
2023-02-21T19:16:43.025Z,3.08
2023-02-21T19:19:10.571Z,3.40
2023-02-21T19:21:37.757Z,3.60
2023-02-21T19:24:05.122Z,3.58
2023-02-21T19:26:32.509Z,3.58
2023-02-21T19:29:00.075Z,3.72
2023-02-21T19:31:27.625Z,3.05
2023-02-21T19:33:54.953Z,2.80
2023-02-21T19:36:23.113Z,4.05
2023-02-21T19:38:50.593Z,3.33
2023-02-21T19:41:19.002Z,3.20
2023-02-21T19:43:46.585Z,4.18
2023-02-21T19:46:26.214Z,3.97
2023-02-21T19:48:57.084Z,3.13
2023-02-21T19:51:26.788Z,3.42
2023-02-21T19:53:54.344Z,2.95
2023-02-21T19:56:21.277Z,3.40
2023-02-21T19:58:48.387Z,3.85
2023-02-21T20:01:15.940Z,2.75
2023-02-21T20:03:44.675Z,4.65
2023-02-21T20:06:11.812Z,4.05
2023-02-21T20:08:39.667Z,3.08
2023-02-21T20:11:06.819Z,3.72
2023-02-21T20:13:33.410Z,3.13
2023-02-21T20:16:00.567Z,3.20
2023-02-21T20:18:27.765Z,3.15
2023-02-21T20:20:54.914Z,2.60
2023-02-21T20:23:22.068Z,2.60
2023-02-21T20:25:50.685Z,3.13
2023-02-21T20:28:18.264Z,3.42
2023-02-21T20:30:45.464Z,3.20
2023-02-21T20:33:12.090Z,2.80
2023-02-21T20:35:39.163Z,3.95
2023-02-21T20:38:06.205Z,5.53
2023-02-21T20:40:34.009Z,5.07
2023-02-21T20:43:01.907Z,6.10
2023-02-21T20:45:29.210Z,6.07
2023-02-21T20:47:56.473Z,5.95
2023-02-21T20:50:32.516Z,4.85
2023-02-21T20:52:59.107Z,4.45
2023-02-21T20:55:26.257Z,3.75
2023-02-21T20:57:53.575Z,3.42
2023-02-21T21:00:23.863Z,3.22
2023-02-21T21:02:52.127Z,3.80
2023-02-21T21:05:21.483Z,4.28
2023-02-21T21:07:49.219Z,2.97
2023-02-21T21:10:17.196Z,2.85
2023-02-21T21:12:44.734Z,3.08
2023-02-21T21:15:14.663Z,4.38
2023-02-21T21:17:42.898Z,3.35
2023-02-21T21:20:14.598Z,3.45
2023-02-21T21:22:42.180Z,3.55
2023-02-21T21:25:09.889Z,3.83
2023-02-21T21:27:37.987Z,2.65
2023-02-21T21:30:07.623Z,2.90
2023-02-21T21:32:35.324Z,3.22
2023-02-21T21:35:07.630Z,2.97
2023-02-21T21:37:35.826Z,2.70
2023-02-21T21:40:18.416Z,3.72
2023-02-21T21:42:50.298Z,3.65
2023-02-21T21:45:20.121Z,4.32
2023-02-21T21:47:49.724Z,4.35
2023-02-21T21:50:21.873Z,4.65
2023-02-21T21:52:54.943Z,4.03
2023-02-21T21:55:26.010Z,3.65
2023-02-21T21:57:54.197Z,5.22
2023-02-21T22:00:24.802Z,3.85
2023-02-21T22:03:00.223Z,3.60
2023-02-21T22:05:32.284Z,3.60
2023-02-21T22:08:00.833Z,3.63
2023-02-21T22:10:30.246Z,3.53
2023-02-21T22:13:00.244Z,3.97
2023-02-21T22:15:30.114Z,4.55
2023-02-21T22:18:02.200Z,3.05
2023-02-21T22:20:31.874Z,3.72
2023-02-21T22:23:03.347Z,3.58
2023-02-21T22:25:30.915Z,4.20
2023-02-21T22:27:59.056Z,4.10
2023-02-21T22:30:27.458Z,3.55
2023-02-21T22:32:58.005Z,4.47
2023-02-21T22:35:25.438Z,4.03
2023-02-21T22:37:58.118Z,4.10
2023-02-21T22:40:27.113Z,3.10
2023-02-21T22:42:55.697Z,4.20
2023-02-21T22:45:26.179Z,3.83
2023-02-21T22:47:58.182Z,3.15
2023-02-21T22:50:26.956Z,3.60
2023-02-21T22:52:58.752Z,4.40
2023-02-21T22:55:27.101Z,3.22
2023-02-21T22:58:01.549Z,4.18
2023-02-21T23:00:33.927Z,3.38
2023-02-21T23:03:13.128Z,4.25
2023-02-21T23:06:02.153Z,4.07
2023-02-21T23:08:29.966Z,4.00
2023-02-21T23:11:01.059Z,4.20
2023-02-21T23:13:29.392Z,4.43
2023-02-21T23:15:58.585Z,3.97
2023-02-21T23:18:26.275Z,3.60
2023-02-21T23:20:58.762Z,3.33
2023-02-21T23:23:28.537Z,3.72
2023-02-21T23:25:59.356Z,3.15
2023-02-21T23:28:31.505Z,3.53
2023-02-21T23:30:58.772Z,3.33
2023-02-21T23:33:29.550Z,3.78
2023-02-21T23:35:58.292Z,3.72
2023-02-21T23:38:28.549Z,4.35
2023-02-21T23:40:58.696Z,3.53
2023-02-21T23:43:29.787Z,3.47
2023-02-21T23:45:59.201Z,3.45
2023-02-21T23:48:26.779Z,3.17
2023-02-21T23:50:58.259Z,3.38
2023-02-21T23:53:28.478Z,5.50
2023-02-21T23:55:58.037Z,3.85
2023-02-21T23:58:27.972Z,3.72
